createdAt,value
2019-05-02T00:01:57.155Z,76.89
2019-05-02T00:04:26.783Z,76.90
2019-05-02T00:07:09.719Z,76.52
2019-05-02T00:09:47.437Z,76.88
2019-05-02T00:12:16.110Z,76.80
2019-05-02T00:14:45.696Z,76.62
2019-05-02T00:17:20.353Z,76.79
2019-05-02T00:19:49.850Z,76.80
2019-05-02T00:22:20.051Z,76.59
2019-05-02T00:24:49.836Z,76.55
2019-05-02T00:27:19.326Z,76.45
2019-05-02T00:29:48.906Z,76.16
2019-05-02T00:32:22.245Z,76.31
2019-05-02T00:34:49.535Z,76.34
2019-05-02T00:37:24.384Z,76.26
2019-05-02T00:39:50.535Z,76.37
2019-05-02T00:42:22.594Z,76.18
2019-05-02T00:44:51.380Z,76.09
2019-05-02T00:47:31.009Z,76.07
2019-05-02T00:50:00.427Z,76.02
2019-05-02T00:52:32.878Z,75.87
2019-05-02T00:55:01.093Z,75.47
2019-05-02T00:57:33.537Z,75.81
2019-05-02T01:00:03.675Z,75.59
2019-05-02T01:02:35.852Z,75.67
2019-05-02T01:05:06.752Z,75.72
2019-05-02T01:07:36.192Z,75.64
2019-05-02T01:10:07.179Z,75.75
2019-05-02T01:12:40.014Z,76.09
2019-05-02T01:15:08.681Z,75.69
2019-05-02T01:17:39.243Z,75.83
2019-05-02T01:20:09.233Z,76.05
2019-05-02T01:22:38.723Z,75.37
2019-05-02T01:25:14.940Z,75.60
2019-05-02T01:27:44.692Z,75.73
2019-05-02T01:30:25.487Z,75.41
2019-05-02T01:33:06.448Z,75.25
2019-05-02T01:35:50.992Z,75.29
2019-05-02T01:38:26.561Z,75.07
2019-05-02T01:40:55.918Z,75.25
2019-05-02T01:43:27.707Z,75.19
2019-05-02T01:45:57.281Z,74.66
2019-05-02T01:48:26.858Z,74.85
2019-05-02T01:50:56.304Z,74.50
2019-05-02T01:53:29.238Z,74.25
2019-05-02T01:55:59.186Z,74.21
2019-05-02T01:58:28.218Z,74.30
2019-05-02T02:00:57.651Z,74.32
2019-05-02T02:03:27.285Z,74.33
2019-05-02T02:05:56.822Z,74.47
2019-05-02T02:08:27.224Z,74.37
2019-05-02T02:10:58.244Z,74.14
2019-05-02T02:13:31.374Z,74.11
2019-05-02T02:16:00.224Z,74.14
2019-05-02T02:18:31.995Z,73.98
2019-05-02T02:21:09.351Z,73.58
2019-05-02T02:23:49.670Z,73.23
2019-05-02T02:26:19.043Z,73.80
2019-05-02T02:28:48.554Z,73.39
2019-05-02T02:31:19.764Z,73.53
2019-05-02T02:33:51.485Z,73.45
2019-05-02T02:36:30.214Z,73.30
2019-05-02T02:38:57.585Z,73.64
2019-05-02T02:41:27.090Z,73.19
2019-05-02T02:44:02.976Z,73.43
2019-05-02T02:46:38.099Z,73.38
2019-05-02T02:49:05.477Z,73.27
2019-05-02T02:51:34.997Z,73.13
2019-05-02T02:54:05.835Z,72.95
2019-05-02T02:56:40.433Z,73.32
2019-05-02T02:59:06.837Z,73.23
2019-05-02T03:01:36.286Z,73.73
2019-05-02T03:04:09.491Z,73.65
2019-05-02T03:06:38.352Z,73.41
2019-05-02T03:09:08.689Z,73.39
2019-05-02T03:11:39.911Z,73.64
2019-05-02T03:14:11.064Z,73.81
2019-05-02T03:16:47.236Z,73.84
2019-05-02T03:19:14.774Z,73.94
2019-05-02T03:22:01.030Z,73.80
2019-05-02T03:24:27.311Z,73.64
2019-05-02T03:26:58.361Z,73.94
2019-05-02T03:29:39.706Z,74.28
2019-05-02T03:32:14.274Z,74.10
2019-05-02T03:34:45.298Z,73.98
2019-05-02T03:37:09.597Z,74.02
2019-05-02T03:39:34.768Z,73.94
2019-05-02T03:42:05.096Z,73.79
2019-05-02T03:44:35.719Z,73.70
2019-05-02T03:47:05.364Z,74.13
2019-05-02T03:49:41.045Z,73.94
2019-05-02T03:52:06.259Z,74.10
2019-05-02T03:54:49.084Z,74.23
2019-05-02T03:57:07.567Z,74.35
2019-05-02T03:59:39.722Z,74.64
2019-05-02T04:02:14.148Z,74.66
2019-05-02T04:04:40.364Z,74.90
2019-05-02T04:07:10.188Z,74.79
2019-05-02T04:09:42.353Z,74.77
2019-05-02T04:12:18.938Z,74.88
2019-05-02T04:14:43.369Z,74.77
2019-05-02T04:17:13.040Z,74.81
2019-05-02T04:19:43.612Z,75.07
2019-05-02T04:22:14.515Z,74.99
2019-05-02T04:24:47.809Z,75.08
2019-05-02T04:27:15.789Z,75.12
2019-05-02T04:29:45.207Z,75.07
2019-05-02T04:32:14.910Z,75.08
2019-05-02T04:34:48.960Z,75.36
2019-05-02T04:37:15.535Z,75.38
2019-05-02T04:39:44.981Z,75.43
2019-05-02T04:42:19.470Z,75.17
2019-05-02T04:45:08.785Z,75.34
2019-05-02T04:47:21.335Z,75.26
2019-05-02T04:49:52.071Z,75.28
2019-05-02T04:52:21.831Z,75.42
2019-05-02T04:54:51.284Z,75.61
2019-05-02T04:57:26.289Z,75.59
2019-05-02T05:00:04.982Z,75.58
2019-05-02T05:02:30.831Z,75.62
2019-05-02T05:04:54.141Z,75.50
2019-05-02T05:07:24.251Z,75.36
2019-05-02T05:10:02.660Z,75.40
2019-05-02T05:12:24.808Z,75.35
2019-05-02T05:14:54.232Z,75.56
2019-05-02T05:17:25.015Z,75.65
2019-05-02T05:19:54.790Z,75.67
2019-05-02T05:22:24.236Z,75.46
2019-05-02T05:25:12.282Z,75.33
2019-05-02T05:27:41.540Z,75.41
2019-05-02T05:30:15.425Z,75.47
2019-05-02T05:32:42.239Z,75.78
2019-05-02T05:35:14.727Z,75.77
2019-05-02T05:37:51.419Z,75.73
2019-05-02T05:40:17.661Z,75.68
2019-05-02T05:42:48.079Z,75.90
2019-05-02T05:45:17.757Z,76.16
2019-05-02T05:47:47.888Z,76.27
2019-05-02T05:50:17.774Z,76.35
2019-05-02T05:52:47.355Z,76.24
2019-05-02T05:55:20.348Z,76.30
2019-05-02T05:57:50.130Z,76.29
2019-05-02T06:00:22.985Z,76.34
2019-05-02T06:02:56.089Z,76.57
2019-05-02T06:05:21.519Z,76.59
2019-05-02T06:07:50.933Z,76.55
2019-05-02T06:10:20.389Z,76.38
2019-05-02T06:12:49.865Z,76.62
2019-05-02T06:15:19.447Z,76.39
2019-05-02T06:17:48.939Z,76.57
2019-05-02T06:20:18.521Z,76.62
2019-05-02T06:22:47.941Z,76.21
2019-05-02T06:25:17.534Z,75.98
2019-05-02T06:27:46.957Z,76.10
2019-05-02T06:30:17.484Z,75.93
2019-05-02T06:32:50.122Z,75.94
2019-05-02T06:35:21.250Z,75.86
2019-05-02T06:37:50.112Z,75.80
2019-05-02T06:40:20.442Z,75.80
2019-05-02T06:42:49.955Z,75.35
2019-05-02T06:45:19.619Z,75.65
2019-05-02T06:47:49.134Z,75.60
2019-05-02T06:50:18.687Z,75.93
2019-05-02T06:52:48.226Z,75.48
2019-05-02T06:55:17.808Z,75.25
2019-05-02T06:57:47.469Z,75.23
2019-05-02T07:00:17.526Z,75.20
2019-05-02T07:02:47.082Z,75.03
2019-05-02T07:05:16.651Z,74.84
2019-05-02T07:07:46.199Z,75.44
2019-05-02T07:10:19.970Z,75.38
2019-05-02T07:12:51.185Z,75.51
2019-05-02T07:15:25.755Z,75.74
2019-05-02T07:17:59.084Z,75.44
2019-05-02T07:20:28.527Z,74.79
2019-05-02T07:22:59.582Z,75.44
2019-05-02T07:25:29.000Z,75.48
2019-05-02T07:27:58.512Z,75.70
2019-05-02T07:30:30.116Z,75.53
2019-05-02T07:33:01.149Z,75.68
2019-05-02T07:35:30.397Z,75.83
2019-05-02T07:37:59.836Z,76.04
2019-05-02T07:40:29.349Z,75.84
2019-05-02T07:42:58.778Z,75.97
2019-05-02T07:45:28.299Z,76.10
2019-05-02T07:47:57.747Z,75.96
2019-05-02T07:50:27.260Z,75.63
2019-05-02T07:52:56.750Z,75.53
2019-05-02T07:55:30.598Z,75.67
2019-05-02T07:58:02.035Z,75.37
2019-05-02T08:00:32.079Z,75.39
2019-05-02T08:03:04.986Z,75.33
2019-05-02T08:05:33.487Z,75.55
2019-05-02T08:08:03.011Z,75.63
2019-05-02T08:10:32.506Z,75.67
2019-05-02T08:13:02.088Z,75.60
2019-05-02T08:15:31.675Z,75.28
2019-05-02T08:18:01.090Z,75.63
2019-05-02T08:20:30.623Z,75.43
2019-05-02T08:23:00.159Z,75.33
2019-05-02T08:25:29.608Z,74.85
2019-05-02T08:28:15.815Z,75.05
2019-05-02T08:30:45.365Z,75.15
2019-05-02T08:33:14.893Z,75.51
2019-05-02T08:35:44.869Z,75.07
2019-05-02T08:38:17.798Z,75.00
2019-05-02T08:40:47.866Z,74.97
2019-05-02T08:43:16.701Z,75.04
2019-05-02T08:45:46.124Z,74.90
2019-05-02T08:48:15.573Z,74.55
2019-05-02T08:50:45.120Z,74.43
2019-05-02T08:53:19.728Z,74.70
2019-05-02T08:55:46.716Z,74.63
2019-05-02T08:58:16.307Z,74.33
2019-05-02T09:00:47.388Z,74.31
2019-05-02T09:03:17.044Z,74.13
2019-05-02T09:05:47.468Z,74.25
2019-05-02T09:08:17.178Z,74.11
2019-05-02T09:10:46.767Z,73.55
2019-05-02T09:13:23.633Z,73.14
2019-05-02T09:15:51.308Z,73.45
2019-05-02T09:18:18.594Z,73.18
2019-05-02T09:20:52.639Z,73.27
2019-05-02T09:23:19.162Z,73.56
2019-05-02T09:25:48.596Z,73.84
2019-05-02T09:28:22.493Z,73.98
2019-05-02T09:31:05.085Z,73.83
2019-05-02T09:33:32.245Z,73.75
2019-05-02T09:36:02.425Z,73.59
2019-05-02T09:38:32.849Z,73.03
2019-05-02T09:41:15.345Z,73.10
2019-05-02T09:43:38.977Z,72.62
2019-05-02T09:46:07.316Z,72.62
2019-05-02T09:48:36.569Z,72.17
2019-05-02T09:51:12.523Z,72.54
2019-05-02T09:53:37.270Z,72.69
2019-05-02T09:56:06.835Z,72.51
2019-05-02T09:58:36.351Z,72.32
2019-05-02T10:01:11.859Z,72.96
2019-05-02T10:03:42.385Z,72.96
2019-05-02T10:06:13.894Z,72.07
2019-05-02T10:08:46.276Z,71.84
2019-05-02T10:11:16.854Z,70.92
2019-05-02T10:13:45.561Z,70.92
2019-05-02T10:16:18.010Z,71.41
2019-05-02T10:18:46.203Z,71.66
2019-05-02T10:21:17.170Z,70.88
2019-05-02T10:23:51.826Z,71.04
2019-05-02T10:26:20.242Z,70.58
2019-05-02T10:28:50.762Z,70.37
2019-05-02T10:31:21.854Z,70.64
2019-05-02T10:33:52.951Z,70.79
2019-05-02T10:36:23.967Z,70.30
2019-05-02T10:38:58.852Z,70.11
2019-05-02T10:41:24.780Z,70.15
2019-05-02T10:43:57.748Z,70.11
2019-05-02T10:46:27.783Z,70.03
2019-05-02T10:49:18.259Z,70.17
2019-05-02T10:51:49.608Z,70.71
2019-05-02T10:54:20.606Z,70.53
2019-05-02T10:56:51.847Z,70.72
2019-05-02T10:59:22.108Z,69.94
2019-05-02T11:02:09.968Z,69.09
2019-05-02T11:04:42.095Z,69.04
2019-05-02T11:07:12.033Z,68.51
2019-05-02T11:09:42.033Z,67.97
2019-05-02T11:12:16.459Z,68.02
2019-05-02T11:14:46.096Z,67.66
2019-05-02T11:17:20.165Z,67.38
2019-05-02T11:20:01.898Z,67.46
2019-05-02T11:22:32.688Z,66.89
2019-05-02T11:25:02.180Z,66.52
2019-05-02T11:27:32.856Z,66.09
2019-05-02T11:30:02.791Z,65.81
2019-05-02T11:32:33.026Z,64.92
2019-05-02T11:35:03.077Z,64.47
2019-05-02T11:37:32.927Z,64.57
2019-05-02T11:40:05.778Z,64.37
2019-05-02T11:42:33.878Z,64.27
2019-05-02T11:45:04.243Z,64.28
2019-05-02T11:47:33.713Z,63.51
2019-05-02T11:50:03.478Z,64.12
2019-05-02T11:52:37.318Z,63.57
2019-05-02T11:55:06.064Z,62.69
2019-05-02T11:57:35.531Z,62.78
2019-05-02T12:00:09.073Z,62.00
2019-05-02T12:02:41.768Z,61.82
2019-05-02T12:05:14.099Z,62.09
2019-05-02T12:07:43.560Z,61.66
2019-05-02T12:10:13.222Z,60.17
2019-05-02T12:12:43.757Z,59.95
2019-05-02T12:15:13.388Z,59.03
2019-05-02T12:17:43.109Z,58.15
2019-05-02T12:20:12.825Z,58.04
2019-05-02T12:22:42.423Z,58.63
2019-05-02T12:25:12.893Z,57.53
2019-05-02T12:27:43.573Z,57.51
2019-05-02T12:30:13.835Z,57.23
2019-05-02T12:32:43.370Z,58.10
2019-05-02T12:35:13.083Z,57.97
2019-05-02T12:37:42.588Z,57.90
2019-05-02T12:40:12.598Z,57.19
2019-05-02T12:42:42.099Z,57.83
2019-05-02T12:45:12.324Z,58.47
2019-05-02T12:47:42.811Z,58.78
2019-05-02T12:50:12.801Z,57.79
2019-05-02T12:52:42.882Z,58.19
2019-05-02T12:55:12.920Z,58.51
2019-05-02T12:57:42.982Z,58.25
2019-05-02T13:00:13.476Z,58.42
2019-05-02T13:02:47.391Z,58.61
2019-05-02T13:05:18.061Z,58.72
2019-05-02T13:07:50.493Z,59.28
2019-05-02T13:10:24.271Z,59.67
2019-05-02T13:12:53.843Z,60.44
2019-05-02T13:15:23.529Z,60.18
2019-05-02T13:17:53.364Z,59.95
2019-05-02T13:20:29.165Z,59.93
2019-05-02T13:23:13.825Z,59.77
2019-05-02T13:25:43.445Z,60.33
2019-05-02T13:28:17.130Z,60.93
2019-05-02T13:30:46.704Z,61.02
2019-05-02T13:33:18.184Z,60.67
2019-05-02T13:35:52.060Z,61.18
2019-05-02T13:38:22.465Z,61.74
2019-05-02T13:40:51.997Z,61.36
2019-05-02T13:43:23.087Z,61.72
2019-05-02T13:46:02.251Z,62.38
2019-05-02T13:48:32.307Z,62.19
2019-05-02T13:51:03.907Z,62.43
2019-05-02T13:53:34.371Z,62.61
2019-05-02T13:56:23.852Z,62.73
2019-05-02T13:58:53.274Z,63.10
2019-05-02T14:01:23.130Z,63.50
2019-05-02T14:03:55.473Z,63.93
2019-05-02T14:06:30.257Z,64.70
2019-05-02T14:08:59.202Z,65.89
2019-05-02T14:11:43.492Z,66.00
2019-05-02T14:14:13.180Z,66.65
2019-05-02T14:16:42.635Z,67.16
2019-05-02T14:19:12.682Z,67.46
2019-05-02T14:21:42.392Z,67.08
2019-05-02T14:24:11.962Z,67.97
2019-05-02T14:26:43.429Z,68.33
2019-05-02T14:29:16.290Z,68.52
2019-05-02T14:31:44.273Z,69.05
2019-05-02T14:34:32.715Z,69.23
2019-05-02T14:37:02.147Z,69.58
2019-05-02T14:39:32.515Z,70.21
2019-05-02T14:42:03.724Z,71.58
2019-05-02T14:45:01.518Z,72.40
2019-05-02T14:47:04.640Z,72.81
2019-05-02T14:49:34.169Z,72.92
2019-05-02T14:52:07.051Z,73.41
2019-05-02T14:54:38.052Z,73.70
2019-05-02T14:57:21.498Z,73.99
2019-05-02T14:59:50.207Z,73.73
2019-05-02T15:02:22.874Z,73.86
2019-05-02T15:04:53.294Z,73.97
2019-05-02T15:07:26.567Z,73.99
2019-05-02T15:09:57.229Z,73.98
2019-05-02T15:12:25.105Z,74.00
2019-05-02T15:14:58.646Z,73.95
2019-05-02T15:17:27.993Z,73.99
2019-05-02T15:19:57.147Z,74.04
2019-05-02T15:22:35.843Z,74.06
2019-05-02T15:25:00.050Z,74.28
2019-05-02T15:27:40.197Z,74.60
2019-05-02T15:30:06.553Z,75.64
2019-05-02T15:32:37.281Z,75.99
2019-05-02T15:35:12.916Z,76.22
2019-05-02T15:37:42.686Z,76.96
2019-05-02T15:42:52.214Z,76.16
2019-05-02T15:45:23.761Z,75.97
2019-05-02T15:47:53.064Z,75.98
2019-05-02T15:50:25.395Z,75.89
2019-05-02T15:52:57.309Z,76.01
2019-05-02T15:55:26.808Z,76.55
2019-05-02T15:57:56.331Z,76.75
2019-05-02T16:00:27.868Z,75.91
2019-05-02T16:03:02.901Z,75.06
2019-05-02T16:05:31.957Z,75.10
2019-05-02T16:08:06.310Z,75.35
2019-05-02T16:10:38.474Z,74.82
2019-05-02T16:13:08.859Z,75.18
2019-05-02T16:15:40.540Z,74.24
2019-05-02T16:18:12.623Z,74.36
2019-05-02T16:20:47.274Z,74.45
2019-05-02T16:23:19.501Z,74.30
2019-05-02T16:25:46.659Z,73.83
2019-05-02T16:28:16.381Z,73.21
2019-05-02T16:30:47.686Z,73.04
2019-05-02T16:33:20.737Z,73.29
2019-05-02T16:35:53.494Z,72.85
2019-05-02T16:38:26.735Z,72.11
2019-05-02T16:40:55.928Z,71.62
2019-05-02T16:43:27.062Z,71.64
2019-05-02T16:45:56.594Z,71.41
2019-05-02T16:48:32.358Z,71.41
2019-05-02T16:50:58.801Z,71.28
2019-05-02T16:53:30.996Z,70.78
2019-05-02T16:56:05.512Z,70.88
2019-05-02T16:58:38.103Z,70.92
2019-05-02T17:01:07.939Z,70.71
2019-05-02T17:03:42.374Z,70.31
2019-05-02T17:06:12.373Z,70.48
2019-05-02T17:09:02.849Z,70.53
2019-05-02T17:11:38.253Z,70.51
2019-05-02T17:14:12.114Z,69.97
2019-05-02T17:16:42.136Z,70.33
2019-05-02T17:19:12.738Z,70.41
2019-05-02T17:21:53.960Z,70.58
2019-05-02T17:24:22.660Z,71.16
2019-05-02T17:26:54.093Z,71.09
2019-05-02T17:29:24.135Z,71.04
2019-05-02T17:31:59.148Z,70.72
2019-05-02T17:34:30.245Z,70.89
2019-05-02T17:37:03.231Z,70.50
2019-05-02T17:39:30.586Z,70.57
2019-05-02T17:42:00.943Z,70.60
2019-05-02T17:44:31.258Z,70.73
2019-05-02T17:47:02.405Z,70.90
2019-05-02T17:49:37.185Z,71.00
2019-05-02T17:52:20.985Z,71.26
2019-05-02T17:54:48.950Z,71.50
2019-05-02T17:57:21.549Z,71.72
2019-05-02T17:59:54.518Z,71.64
2019-05-02T18:02:23.945Z,71.83
2019-05-02T18:04:55.819Z,72.00
2019-05-02T18:07:31.671Z,72.16
2019-05-02T18:09:56.201Z,72.35
2019-05-02T18:12:25.716Z,72.48
2019-05-02T18:14:59.062Z,72.89
2019-05-02T18:17:27.557Z,72.89
2019-05-02T18:20:02.293Z,72.82
2019-05-02T18:22:34.214Z,72.94
2019-05-02T18:25:02.270Z,72.73
2019-05-02T18:27:32.046Z,72.53
2019-05-02T18:30:02.227Z,72.44
2019-05-02T18:32:33.792Z,72.88
2019-05-02T18:35:06.333Z,74.41
2019-05-02T18:37:42.839Z,73.26
2019-05-02T18:40:11.940Z,72.78
2019-05-02T18:42:42.414Z,73.31
2019-05-02T18:45:18.077Z,73.73
2019-05-02T18:47:47.660Z,74.22
2019-05-02T18:50:36.971Z,75.32
2019-05-02T18:53:08.547Z,75.68
2019-05-02T18:55:42.292Z,76.97
2019-05-02T18:58:13.071Z,77.12
2019-05-02T19:00:42.694Z,76.90
2019-05-02T19:03:16.974Z,77.67
2019-05-02T19:05:46.417Z,77.88
2019-05-02T19:08:15.145Z,77.85
2019-05-02T19:11:04.087Z,78.13
2019-05-02T19:13:19.442Z,78.33
2019-05-02T19:15:49.121Z,78.94
2019-05-02T19:18:20.250Z,78.94
2019-05-02T19:20:57.430Z,79.57
2019-05-02T19:23:24.491Z,79.57
2019-05-02T19:25:54.214Z,79.40
2019-05-02T19:28:34.692Z,79.32
2019-05-02T19:31:06.738Z,79.73
2019-05-02T19:33:37.310Z,80.39
2019-05-02T19:36:05.286Z,80.39
2019-05-02T19:38:34.971Z,80.90
2019-05-02T19:41:08.868Z,80.61
2019-05-02T19:43:40.310Z,80.38
2019-05-02T19:46:07.034Z,80.53
2019-05-02T19:48:37.410Z,80.61
2019-05-02T19:51:10.569Z,80.61
2019-05-02T19:53:39.116Z,80.73
2019-05-02T19:56:08.912Z,81.21
2019-05-02T19:58:42.794Z,81.21
2019-05-02T20:01:09.788Z,81.26
2019-05-02T20:03:39.327Z,81.43
2019-05-02T20:06:08.832Z,81.43
2019-05-02T20:08:38.358Z,81.37
2019-05-02T20:11:07.854Z,81.91
2019-05-02T20:13:37.445Z,81.46
2019-05-02T20:16:19.953Z,81.46
2019-05-02T20:18:49.758Z,80.68
2019-05-02T20:21:27.219Z,80.68
2019-05-02T20:23:52.107Z,79.80
2019-05-02T20:26:22.254Z,79.35
2019-05-02T20:28:52.786Z,79.35
2019-05-02T20:31:22.590Z,79.79
2019-05-02T20:33:53.104Z,79.01
2019-05-02T20:36:25.578Z,79.36
2019-05-02T20:38:53.837Z,79.58
2019-05-02T20:41:23.837Z,79.61
2019-05-02T20:43:53.307Z,79.02
2019-05-02T20:46:24.799Z,77.84
2019-05-02T20:48:54.250Z,77.62
2019-05-02T20:51:24.195Z,77.36
2019-05-02T20:53:53.650Z,76.81
2019-05-02T20:56:23.679Z,75.73
2019-05-02T20:58:54.769Z,74.58
2019-05-02T21:01:24.289Z,74.91
2019-05-02T21:03:53.822Z,75.07
2019-05-02T21:09:22.544Z,75.08
2019-05-02T21:11:53.699Z,75.56
2019-05-02T21:14:26.275Z,75.51
2019-05-02T21:16:55.788Z,75.73
2019-05-02T21:19:25.354Z,75.42
2019-05-02T21:21:56.558Z,76.61
2019-05-02T21:24:26.088Z,76.29
2019-05-02T21:26:57.142Z,76.60
2019-05-02T21:29:26.596Z,76.83
2019-05-02T21:31:56.104Z,77.05
2019-05-02T21:34:25.732Z,76.11
2019-05-02T21:36:55.269Z,76.40
2019-05-02T21:39:24.732Z,76.41
2019-05-02T21:41:54.252Z,76.08
2019-05-02T21:44:23.778Z,75.73
2019-05-02T21:46:53.286Z,76.83
2019-05-02T21:49:42.961Z,76.61
2019-05-02T21:52:25.348Z,77.04
2019-05-02T21:54:56.442Z,77.08
2019-05-02T21:57:27.422Z,77.35
2019-05-02T21:59:56.879Z,76.65
2019-05-02T22:02:26.550Z,76.16
2019-05-02T22:04:56.128Z,75.81
2019-05-02T22:07:25.658Z,76.43
2019-05-02T22:09:55.156Z,76.08
2019-05-02T22:12:25.052Z,76.22
2019-05-02T22:14:54.558Z,76.20
2019-05-02T22:17:24.134Z,76.92
2019-05-02T22:19:53.638Z,77.19
2019-05-02T22:22:23.098Z,76.95
2019-05-02T22:24:52.916Z,77.23
2019-05-02T22:27:22.661Z,77.12
2019-05-02T22:29:54.630Z,77.51
2019-05-02T22:32:23.416Z,77.18
2019-05-02T22:34:55.841Z,77.43
2019-05-02T22:37:25.319Z,77.39
2019-05-02T22:39:56.388Z,77.14
2019-05-02T22:42:25.916Z,77.27
2019-05-02T22:44:55.443Z,77.26
2019-05-02T22:47:25.213Z,77.49
2019-05-02T22:49:54.675Z,76.87
2019-05-02T22:52:24.116Z,77.02
2019-05-02T22:54:53.548Z,77.39
2019-05-02T22:57:23.007Z,77.09
2019-05-02T22:59:52.519Z,77.05
2019-05-02T23:02:22.142Z,77.36
2019-05-02T23:04:52.664Z,77.47
2019-05-02T23:07:22.594Z,76.92
2019-05-02T23:09:52.794Z,77.41
2019-05-02T23:12:24.899Z,77.51
2019-05-02T23:14:53.579Z,77.67
2019-05-02T23:17:23.303Z,77.75
2019-05-02T23:19:52.941Z,77.78
2019-05-02T23:22:24.834Z,77.65
2019-05-02T23:24:55.943Z,77.80
2019-05-02T23:27:31.442Z,77.98
2019-05-02T23:30:02.940Z,77.73
2019-05-02T23:32:34.092Z,77.85
2019-05-02T23:35:07.594Z,78.09
2019-05-02T23:37:37.198Z,78.09
2019-05-02T23:40:06.862Z,78.07
2019-05-02T23:42:36.808Z,77.55
2019-05-02T23:45:09.345Z,77.67
2019-05-02T23:47:38.842Z,78.09
2019-05-02T23:50:08.434Z,77.98
2019-05-02T23:52:38.651Z,77.90
2019-05-02T23:55:08.752Z,77.83
2019-05-02T23:57:38.252Z,77.63
